sensor_id;sensor_type;location;lat;lon;timestamp;P1;durP1;ratioP1;P2;durP2;ratioP2
76995;SDS011;65929;49.062;10.338;2023-02-01T00:01:06;6.68;;;3.08;;
76995;SDS011;65929;49.062;10.338;2023-02-01T00:02:08;6.22;;;2.53;;
76995;SDS011;65929;49.062;10.338;2023-02-01T00:03:09;7.15;;;3.60;;
76995;SDS011;65929;49.062;10.338;2023-02-01T00:04:11;6.53;;;3.42;;
76995;SDS011;65929;49.062;10.338;2023-02-01T00:05:12;4.88;;;2.85;;
76995;SDS011;65929;49.062;10.338;2023-02-01T00:06:13;4.40;;;2.70;;
76995;SDS011;65929;49.062;10.338;2023-02-01T00:07:14;8.63;;;2.95;;
76995;SDS011;65929;49.062;10.338;2023-02-01T00:08:15;3.88;;;2.40;;
76995;SDS011;65929;49.062;10.338;2023-02-01T00:09:16;4.15;;;2.80;;
76995;SDS011;65929;49.062;10.338;2023-02-01T00:10:17;7.35;;;3.22;;
76995;SDS011;65929;49.062;10.338;2023-02-01T00:11:18;5.20;;;3.45;;
76995;SDS011;65929;49.062;10.338;2023-02-01T00:12:19;5.00;;;2.65;;
76995;SDS011;65929;49.062;10.338;2023-02-01T00:13:20;6.38;;;2.67;;
76995;SDS011;65929;49.062;10.338;2023-02-01T00:14:21;5.07;;;2.35;;
76995;SDS011;65929;49.062;10.338;2023-02-01T00:15:22;7.38;;;3.25;;
76995;SDS011;65929;49.062;10.338;2023-02-01T00:16:26;6.90;;;3.72;;
76995;SDS011;65929;49.062;10.338;2023-02-01T00:17:28;7.57;;;2.40;;
76995;SDS011;65929;49.062;10.338;2023-02-01T00:18:29;4.22;;;2.50;;
76995;SDS011;65929;49.062;10.338;2023-02-01T00:19:29;4.63;;;2.95;;
76995;SDS011;65929;49.062;10.338;2023-02-01T00:20:30;5.72;;;3.28;;
76995;SDS011;65929;49.062;10.338;2023-02-01T00:21:31;4.97;;;2.92;;
76995;SDS011;65929;49.062;10.338;2023-02-01T00:22:32;4.05;;;2.40;;
76995;SDS011;65929;49.062;10.338;2023-02-01T00:23:34;4.50;;;2.65;;
76995;SDS011;65929;49.062;10.338;2023-02-01T00:24:35;5.22;;;2.90;;
76995;SDS011;65929;49.062;10.338;2023-02-01T00:25:36;7.75;;;3.08;;
76995;SDS011;65929;49.062;10.338;2023-02-01T00:26:38;5.72;;;2.90;;
76995;SDS011;65929;49.062;10.338;2023-02-01T00:27:40;8.15;;;3.10;;
76995;SDS011;65929;49.062;10.338;2023-02-01T00:28:41;4.15;;;2.63;;
76995;SDS011;65929;49.062;10.338;2023-02-01T00:29:42;3.95;;;2.25;;
76995;SDS011;65929;49.062;10.338;2023-02-01T00:30:43;5.03;;;2.85;;
76995;SDS011;65929;49.062;10.338;2023-02-01T00:31:46;4.22;;;2.42;;
76995;SDS011;65929;49.062;10.338;2023-02-01T00:32:49;3.83;;;2.22;;
76995;SDS011;65929;49.062;10.338;2023-02-01T00:33:52;4.22;;;2.65;;
76995;SDS011;65929;49.062;10.338;2023-02-01T00:34:52;5.78;;;2.40;;
76995;SDS011;65929;49.062;10.338;2023-02-01T00:35:55;5.45;;;2.47;;
76995;SDS011;65929;49.062;10.338;2023-02-01T00:36:57;2.70;;;1.60;;
76995;SDS011;65929;49.062;10.338;2023-02-01T00:38:00;4.32;;;2.63;;
76995;SDS011;65929;49.062;10.338;2023-02-01T00:39:01;3.75;;;2.20;;
76995;SDS011;65929;49.062;10.338;2023-02-01T00:40:02;3.50;;;2.45;;
76995;SDS011;65929;49.062;10.338;2023-02-01T00:41:04;5.75;;;2.72;;
76995;SDS011;65929;49.062;10.338;2023-02-01T00:42:06;4.00;;;2.42;;
76995;SDS011;65929;49.062;10.338;2023-02-01T00:43:07;4.85;;;2.50;;
76995;SDS011;65929;49.062;10.338;2023-02-01T00:44:08;3.97;;;2.22;;
76995;SDS011;65929;49.062;10.338;2023-02-01T00:45:09;6.22;;;2.85;;
76995;SDS011;65929;49.062;10.338;2023-02-01T00:46:11;7.50;;;2.92;;
76995;SDS011;65929;49.062;10.338;2023-02-01T00:47:14;3.78;;;2.47;;
76995;SDS011;65929;49.062;10.338;2023-02-01T00:48:15;6.88;;;2.88;;
76995;SDS011;65929;49.062;10.338;2023-02-01T00:49:16;4.85;;;2.67;;
76995;SDS011;65929;49.062;10.338;2023-02-01T00:51:22;4.43;;;2.53;;
76995;SDS011;65929;49.062;10.338;2023-02-01T00:52:25;5.22;;;2.65;;
76995;SDS011;65929;49.062;10.338;2023-02-01T00:53:26;5.10;;;2.67;;
76995;SDS011;65929;49.062;10.338;2023-02-01T00:54:27;4.10;;;2.20;;
76995;SDS011;65929;49.062;10.338;2023-02-01T00:55:28;4.03;;;2.60;;
76995;SDS011;65929;49.062;10.338;2023-02-01T00:56:29;4.80;;;2.40;;
76995;SDS011;65929;49.062;10.338;2023-02-01T00:57:30;3.63;;;2.67;;
76995;SDS011;65929;49.062;10.338;2023-02-01T00:58:31;5.30;;;2.08;;
76995;SDS011;65929;49.062;10.338;2023-02-01T00:59:33;3.95;;;2.15;;
76995;SDS011;65929;49.062;10.338;2023-02-01T01:00:34;2.90;;;2.10;;
76995;SDS011;65929;49.062;10.338;2023-02-01T01:01:35;1.90;;;1.55;;
76995;SDS011;65929;49.062;10.338;2023-02-01T01:02:37;4.47;;;2.38;;
76995;SDS011;65929;49.062;10.338;2023-02-01T01:13:16;4.38;;;2.15;;
76995;SDS011;65929;49.062;10.338;2023-02-01T01:14:18;5.05;;;2.22;;
76995;SDS011;65929;49.062;10.338;2023-02-01T01:15:19;4.35;;;2.65;;
76995;SDS011;65929;49.062;10.338;2023-02-01T01:16:20;3.78;;;1.77;;
76995;SDS011;65929;49.062;10.338;2023-02-01T01:17:21;3.15;;;2.28;;
76995;SDS011;65929;49.062;10.338;2023-02-01T01:18:24;5.35;;;2.53;;
76995;SDS011;65929;49.062;10.338;2023-02-01T01:19:25;2.33;;;1.73;;
76995;SDS011;65929;49.062;10.338;2023-02-01T01:20:26;3.97;;;1.98;;
76995;SDS011;65929;49.062;10.338;2023-02-01T01:21:27;2.65;;;1.70;;
76995;SDS011;65929;49.062;10.338;2023-02-01T01:22:28;2.97;;;1.80;;
76995;SDS011;65929;49.062;10.338;2023-02-01T01:23:30;4.45;;;2.55;;
76995;SDS011;65929;49.062;10.338;2023-02-01T01:24:31;5.18;;;2.15;;
76995;SDS011;65929;49.062;10.338;2023-02-01T01:25:32;3.28;;;2.25;;
76995;SDS011;65929;49.062;10.338;2023-02-01T01:26:36;3.10;;;2.08;;
76995;SDS011;65929;49.062;10.338;2023-02-01T01:27:37;3.72;;;2.42;;
76995;SDS011;65929;49.062;10.338;2023-02-01T01:28:38;4.18;;;1.95;;
76995;SDS011;65929;49.062;10.338;2023-02-01T01:29:39;3.33;;;1.67;;
76995;SDS011;65929;49.062;10.338;2023-02-01T01:30:40;4.57;;;2.50;;
76995;SDS011;65929;49.062;10.338;2023-02-01T01:31:41;4.88;;;2.40;;
76995;SDS011;65929;49.062;10.338;2023-02-01T01:32:43;3.47;;;1.85;;
76995;SDS011;65929;49.062;10.338;2023-02-01T01:33:46;5.40;;;2.22;;
76995;SDS011;65929;49.062;10.338;2023-02-01T01:34:49;2.80;;;1.55;;
76995;SDS011;65929;49.062;10.338;2023-02-01T01:35:49;4.05;;;2.30;;
76995;SDS011;65929;49.062;10.338;2023-02-01T01:36:50;4.55;;;2.25;;
76995;SDS011;65929;49.062;10.338;2023-02-01T01:37:51;2.67;;;1.70;;
76995;SDS011;65929;49.062;10.338;2023-02-01T01:38:52;4.82;;;2.35;;
76995;SDS011;65929;49.062;10.338;2023-02-01T01:39:53;3.88;;;2.20;;
76995;SDS011;65929;49.062;10.338;2023-02-01T01:40:55;4.13;;;1.83;;
76995;SDS011;65929;49.062;10.338;2023-02-01T01:41:56;2.63;;;1.50;;
76995;SDS011;65929;49.062;10.338;2023-02-01T01:42:57;4.03;;;2.20;;
76995;SDS011;65929;49.062;10.338;2023-02-01T01:43:59;3.75;;;2.30;;
76995;SDS011;65929;49.062;10.338;2023-02-01T01:45:02;4.97;;;2.42;;
76995;SDS011;65929;49.062;10.338;2023-02-01T01:46:04;4.25;;;2.20;;
76995;SDS011;65929;49.062;10.338;2023-02-01T01:47:05;3.35;;;1.90;;
76995;SDS011;65929;49.062;10.338;2023-02-01T01:48:07;2.58;;;1.80;;
76995;SDS011;65929;49.062;10.338;2023-02-01T01:49:16;3.00;;;1.63;;
76995;SDS011;65929;49.062;10.338;2023-02-01T01:50:21;3.80;;;1.88;;
76995;SDS011;65929;49.062;10.338;2023-02-01T01:51:25;2.90;;;1.80;;
76995;SDS011;65929;49.062;10.338;2023-02-01T01:52:28;2.25;;;1.35;;
76995;SDS011;65929;49.062;10.338;2023-02-01T01:53:31;3.92;;;2.40;;
76995;SDS011;65929;49.062;10.338;2023-02-01T01:54:38;5.07;;;2.22;;
76995;SDS011;65929;49.062;10.338;2023-02-01T01:55:43;5.15;;;2.22;;
76995;SDS011;65929;49.062;10.338;2023-02-01T01:56:46;3.72;;;2.08;;
76995;SDS011;65929;49.062;10.338;2023-02-01T01:57:52;3.47;;;2.03;;
76995;SDS011;65929;49.062;10.338;2023-02-01T01:58:56;4.43;;;2.25;;
76995;SDS011;65929;49.062;10.338;2023-02-01T01:59:58;3.15;;;2.08;;
76995;SDS011;65929;49.062;10.338;2023-02-01T02:01:04;2.67;;;1.63;;
76995;SDS011;65929;49.062;10.338;2023-02-01T02:02:05;2.25;;;1.70;;
76995;SDS011;65929;49.062;10.338;2023-02-01T02:03:07;5.15;;;2.58;;
76995;SDS011;65929;49.062;10.338;2023-02-01T02:04:15;3.53;;;1.98;;
76995;SDS011;65929;49.062;10.338;2023-02-01T02:05:16;3.97;;;2.22;;
76995;SDS011;65929;49.062;10.338;2023-02-01T02:06:22;5.22;;;2.08;;
76995;SDS011;65929;49.062;10.338;2023-02-01T02:07:32;2.35;;;1.33;;
76995;SDS011;65929;49.062;10.338;2023-02-01T02:08:36;3.60;;;2.30;;
76995;SDS011;65929;49.062;10.338;2023-02-01T02:09:37;3.00;;;2.13;;
76995;SDS011;65929;49.062;10.338;2023-02-01T02:10:39;2.95;;;1.70;;
76995;SDS011;65929;49.062;10.338;2023-02-01T02:11:59;4.25;;;1.73;;
76995;SDS011;65929;49.062;10.338;2023-02-01T02:13:00;2.75;;;1.80;;
76995;SDS011;65929;49.062;10.338;2023-02-01T02:14:01;3.00;;;1.85;;
76995;SDS011;65929;49.062;10.338;2023-02-01T02:15:04;3.28;;;1.80;;
76995;SDS011;65929;49.062;10.338;2023-02-01T02:17:40;4.60;;;2.17;;
76995;SDS011;65929;49.062;10.338;2023-02-01T02:18:51;4.28;;;2.35;;
76995;SDS011;65929;49.062;10.338;2023-02-01T02:20:16;5.18;;;2.13;;
76995;SDS011;65929;49.062;10.338;2023-02-01T02:21:41;2.40;;;1.45;;
76995;SDS011;65929;49.062;10.338;2023-02-01T02:23:01;3.83;;;1.67;;
76995;SDS011;65929;49.062;10.338;2023-02-01T02:24:34;3.95;;;2.08;;
76995;SDS011;65929;49.062;10.338;2023-02-01T02:26:00;2.08;;;1.30;;
76995;SDS011;65929;49.062;10.338;2023-02-01T02:27:23;3.95;;;1.70;;
76995;SDS011;65929;49.062;10.338;2023-02-01T02:31:56;3.42;;;1.90;;
76995;SDS011;65929;49.062;10.338;2023-02-01T02:34:57;2.00;;;1.60;;
76995;SDS011;65929;49.062;10.338;2023-02-01T02:36:07;2.03;;;1.42;;
76995;SDS011;65929;49.062;10.338;2023-02-01T02:37:15;4.97;;;2.00;;
76995;SDS011;65929;49.062;10.338;2023-02-01T02:38:25;2.28;;;1.38;;
76995;SDS011;65929;49.062;10.338;2023-02-01T02:39:34;3.45;;;1.55;;
76995;SDS011;65929;49.062;10.338;2023-02-01T02:40:42;3.42;;;1.80;;
76995;SDS011;65929;49.062;10.338;2023-02-01T02:41:50;4.40;;;2.05;;
76995;SDS011;65929;49.062;10.338;2023-02-01T02:43:19;3.97;;;1.63;;
76995;SDS011;65929;49.062;10.338;2023-02-01T02:44:44;2.15;;;1.52;;
76995;SDS011;65929;49.062;10.338;2023-02-01T02:46:09;4.85;;;1.80;;
76995;SDS011;65929;49.062;10.338;2023-02-01T02:47:41;2.92;;;1.80;;
76995;SDS011;65929;49.062;10.338;2023-02-01T02:48:46;3.28;;;1.65;;
76995;SDS011;65929;49.062;10.338;2023-02-01T02:49:51;3.33;;;1.73;;
76995;SDS011;65929;49.062;10.338;2023-02-01T02:51:18;3.28;;;2.25;;
76995;SDS011;65929;49.062;10.338;2023-02-01T02:52:43;2.60;;;1.60;;
76995;SDS011;65929;49.062;10.338;2023-02-01T02:54:09;2.53;;;1.55;;
76995;SDS011;65929;49.062;10.338;2023-02-01T02:55:31;2.17;;;1.25;;
76995;SDS011;65929;49.062;10.338;2023-02-01T02:56:37;3.10;;;2.00;;
76995;SDS011;65929;49.062;10.338;2023-02-01T02:57:57;2.58;;;1.73;;
76995;SDS011;65929;49.062;10.338;2023-02-01T02:59:19;2.53;;;1.02;;
76995;SDS011;65929;49.062;10.338;2023-02-01T03:00:42;2.30;;;1.60;;
76995;SDS011;65929;49.062;10.338;2023-02-01T03:02:04;2.95;;;1.88;;
76995;SDS011;65929;49.062;10.338;2023-02-01T03:03:24;3.22;;;1.80;;
76995;SDS011;65929;49.062;10.338;2023-02-01T03:04:44;2.58;;;1.80;;
76995;SDS011;65929;49.062;10.338;2023-02-01T03:05:45;2.78;;;1.75;;
76995;SDS011;65929;49.062;10.338;2023-02-01T03:06:52;3.38;;;2.67;;
76995;SDS011;65929;49.062;10.338;2023-02-01T03:07:55;3.17;;;2.03;;
76995;SDS011;65929;49.062;10.338;2023-02-01T03:09:03;2.05;;;1.38;;
76995;SDS011;65929;49.062;10.338;2023-02-01T03:10:10;3.70;;;1.35;;
76995;SDS011;65929;49.062;10.338;2023-02-01T03:11:17;1.77;;;1.10;;
76995;SDS011;65929;49.062;10.338;2023-02-01T03:12:18;2.63;;;1.48;;
76995;SDS011;65929;49.062;10.338;2023-02-01T03:13:40;2.90;;;1.80;;
76995;SDS011;65929;49.062;10.338;2023-02-01T03:14:49;3.97;;;1.80;;
76995;SDS011;65929;49.062;10.338;2023-02-01T03:15:57;2.47;;;1.70;;
76995;SDS011;65929;49.062;10.338;2023-02-01T03:17:05;2.53;;;1.88;;
76995;SDS011;65929;49.062;10.338;2023-02-01T03:18:15;2.13;;;1.50;;
76995;SDS011;65929;49.062;10.338;2023-02-01T03:19:20;1.95;;;1.30;;
76995;SDS011;65929;49.062;10.338;2023-02-01T03:20:25;2.47;;;1.63;;
76995;SDS011;65929;49.062;10.338;2023-02-01T03:21:29;1.42;;;1.10;;
76995;SDS011;65929;49.062;10.338;2023-02-01T03:22:35;2.65;;;1.50;;
76995;SDS011;65929;49.062;10.338;2023-02-01T03:23:40;3.08;;;1.83;;
76995;SDS011;65929;49.062;10.338;2023-02-01T03:24:45;2.60;;;1.70;;
76995;SDS011;65929;49.062;10.338;2023-02-01T03:25:48;3.53;;;2.10;;
76995;SDS011;65929;49.062;10.338;2023-02-01T03:26:54;2.45;;;1.40;;
76995;SDS011;65929;49.062;10.338;2023-02-01T03:27:58;3.25;;;1.58;;
76995;SDS011;65929;49.062;10.338;2023-02-01T03:29:02;2.22;;;1.73;;
76995;SDS011;65929;49.062;10.338;2023-02-01T03:30:09;2.85;;;1.70;;
76995;SDS011;65929;49.062;10.338;2023-02-01T03:31:17;2.25;;;1.42;;
76995;SDS011;65929;49.062;10.338;2023-02-01T03:32:19;2.30;;;2.00;;
76995;SDS011;65929;49.062;10.338;2023-02-01T03:33:21;2.40;;;1.25;;
76995;SDS011;65929;49.062;10.338;2023-02-01T03:34:24;2.17;;;1.45;;
76995;SDS011;65929;49.062;10.338;2023-02-01T03:35:28;3.67;;;2.10;;
76995;SDS011;65929;49.062;10.338;2023-02-01T03:36:35;3.13;;;1.80;;
76995;SDS011;65929;49.062;10.338;2023-02-01T03:37:41;2.05;;;1.60;;
76995;SDS011;65929;49.062;10.338;2023-02-01T03:38:43;2.53;;;1.80;;
76995;SDS011;65929;49.062;10.338;2023-02-01T03:39:53;2.53;;;1.42;;
76995;SDS011;65929;49.062;10.338;2023-02-01T03:41:07;2.60;;;1.90;;
76995;SDS011;65929;49.062;10.338;2023-02-01T03:42:13;1.88;;;1.23;;
76995;SDS011;65929;49.062;10.338;2023-02-01T03:43:18;2.15;;;1.60;;
76995;SDS011;65929;49.062;10.338;2023-02-01T03:44:22;2.97;;;1.77;;
76995;SDS011;65929;49.062;10.338;2023-02-01T03:45:27;3.35;;;1.38;;
76995;SDS011;65929;49.062;10.338;2023-02-01T03:46:32;2.20;;;1.35;;
76995;SDS011;65929;49.062;10.338;2023-02-01T03:47:37;4.18;;;2.03;;
76995;SDS011;65929;49.062;10.338;2023-02-01T03:48:41;2.85;;;1.98;;
76995;SDS011;65929;49.062;10.338;2023-02-01T03:49:43;3.00;;;1.80;;
76995;SDS011;65929;49.062;10.338;2023-02-01T03:50:48;2.83;;;1.98;;
76995;SDS011;65929;49.062;10.338;2023-02-01T03:51:52;3.85;;;1.92;;
76995;SDS011;65929;49.062;10.338;2023-02-01T03:52:56;2.85;;;1.60;;
76995;SDS011;65929;49.062;10.338;2023-02-01T03:54:02;4.15;;;2.25;;
76995;SDS011;65929;49.062;10.338;2023-02-01T03:55:05;1.40;;;1.13;;
76995;SDS011;65929;49.062;10.338;2023-02-01T03:56:07;1.70;;;1.40;;
76995;SDS011;65929;49.062;10.338;2023-02-01T03:57:12;4.75;;;2.17;;
76995;SDS011;65929;49.062;10.338;2023-02-01T03:58:17;3.53;;;1.70;;
76995;SDS011;65929;49.062;10.338;2023-02-01T03:59:20;3.75;;;2.00;;
76995;SDS011;65929;49.062;10.338;2023-02-01T04:00:22;3.00;;;1.80;;
76995;SDS011;65929;49.062;10.338;2023-02-01T04:01:24;4.40;;;1.98;;
76995;SDS011;65929;49.062;10.338;2023-02-01T04:02:26;2.95;;;1.77;;
76995;SDS011;65929;49.062;10.338;2023-02-01T04:03:27;3.38;;;2.00;;
76995;SDS011;65929;49.062;10.338;2023-02-01T04:04:29;4.03;;;2.00;;
76995;SDS011;65929;49.062;10.338;2023-02-01T04:05:30;2.08;;;1.65;;
76995;SDS011;65929;49.062;10.338;2023-02-01T04:06:31;4.38;;;1.60;;
76995;SDS011;65929;49.062;10.338;2023-02-01T04:07:33;2.17;;;1.60;;
76995;SDS011;65929;49.062;10.338;2023-02-01T04:08:35;5.20;;;2.00;;
76995;SDS011;65929;49.062;10.338;2023-02-01T04:09:36;3.25;;;1.75;;
76995;SDS011;65929;49.062;10.338;2023-02-01T04:10:37;2.15;;;1.30;;
76995;SDS011;65929;49.062;10.338;2023-02-01T04:11:38;2.97;;;1.65;;
76995;SDS011;65929;49.062;10.338;2023-02-01T04:12:40;4.20;;;1.48;;
76995;SDS011;65929;49.062;10.338;2023-02-01T04:13:41;3.60;;;1.77;;
76995;SDS011;65929;49.062;10.338;2023-02-01T04:14:42;3.60;;;1.80;;
76995;SDS011;65929;49.062;10.338;2023-02-01T04:15:43;3.35;;;1.50;;
76995;SDS011;65929;49.062;10.338;2023-02-01T04:16:45;2.88;;;1.52;;
76995;SDS011;65929;49.062;10.338;2023-02-01T04:17:46;3.78;;;1.40;;
76995;SDS011;65929;49.062;10.338;2023-02-01T04:18:47;2.55;;;1.60;;
76995;SDS011;65929;49.062;10.338;2023-02-01T04:19:48;2.55;;;1.38;;
76995;SDS011;65929;49.062;10.338;2023-02-01T04:20:49;1.88;;;1.23;;
76995;SDS011;65929;49.062;10.338;2023-02-01T04:21:50;2.25;;;1.63;;
76995;SDS011;65929;49.062;10.338;2023-02-01T04:22:51;1.88;;;1.30;;
76995;SDS011;65929;49.062;10.338;2023-02-01T04:23:53;3.08;;;1.67;;
76995;SDS011;65929;49.062;10.338;2023-02-01T04:24:55;1.88;;;1.27;;
76995;SDS011;65929;49.062;10.338;2023-02-01T04:25:58;2.72;;;1.30;;
76995;SDS011;65929;49.062;10.338;2023-02-01T04:27:00;3.00;;;1.50;;
76995;SDS011;65929;49.062;10.338;2023-02-01T04:28:02;2.78;;;1.50;;
76995;SDS011;65929;49.062;10.338;2023-02-01T04:29:04;2.13;;;1.42;;
76995;SDS011;65929;49.062;10.338;2023-02-01T04:30:08;3.05;;;1.65;;
76995;SDS011;65929;49.062;10.338;2023-02-01T04:31:18;3.78;;;1.35;;
76995;SDS011;65929;49.062;10.338;2023-02-01T04:32:52;2.10;;;1.05;;
76995;SDS011;65929;49.062;10.338;2023-02-01T04:33:55;2.13;;;1.30;;
76995;SDS011;65929;49.062;10.338;2023-02-01T04:34:59;1.65;;;1.30;;
76995;SDS011;65929;49.062;10.338;2023-02-01T04:36:00;2.00;;;1.60;;
76995;SDS011;65929;49.062;10.338;2023-02-01T04:37:01;2.55;;;1.35;;
76995;SDS011;65929;49.062;10.338;2023-02-01T04:38:02;1.90;;;1.35;;
76995;SDS011;65929;49.062;10.338;2023-02-01T04:39:08;1.90;;;1.45;;
76995;SDS011;65929;49.062;10.338;2023-02-01T04:40:12;3.42;;;1.08;;
76995;SDS011;65929;49.062;10.338;2023-02-01T04:41:13;1.75;;;1.20;;
76995;SDS011;65929;49.062;10.338;2023-02-01T04:42:14;1.65;;;1.05;;
76995;SDS011;65929;49.062;10.338;2023-02-01T04:43:17;2.88;;;1.42;;
76995;SDS011;65929;49.062;10.338;2023-02-01T04:44:18;1.17;;;1.08;;
76995;SDS011;65929;49.062;10.338;2023-02-01T04:45:20;2.30;;;1.13;;
76995;SDS011;65929;49.062;10.338;2023-02-01T04:46:21;1.98;;;1.40;;
76995;SDS011;65929;49.062;10.338;2023-02-01T04:47:22;2.78;;;1.65;;
76995;SDS011;65929;49.062;10.338;2023-02-01T04:48:22;1.80;;;1.13;;
76995;SDS011;65929;49.062;10.338;2023-02-01T04:49:23;2.75;;;1.30;;
76995;SDS011;65929;49.062;10.338;2023-02-01T04:50:26;3.13;;;1.58;;
76995;SDS011;65929;49.062;10.338;2023-02-01T04:51:27;2.42;;;1.60;;
76995;SDS011;65929;49.062;10.338;2023-02-01T04:52:31;2.78;;;1.48;;
76995;SDS011;65929;49.062;10.338;2023-02-01T04:53:32;3.20;;;1.50;;
76995;SDS011;65929;49.062;10.338;2023-02-01T04:54:34;4.70;;;1.60;;
76995;SDS011;65929;49.062;10.338;2023-02-01T04:55:35;2.42;;;1.42;;
76995;SDS011;65929;49.062;10.338;2023-02-01T04:56:36;1.45;;;1.20;;
76995;SDS011;65929;49.062;10.338;2023-02-01T04:57:37;1.10;;;0.85;;
76995;SDS011;65929;49.062;10.338;2023-02-01T04:58:40;2.72;;;1.30;;
76995;SDS011;65929;49.062;10.338;2023-02-01T04:59:41;2.45;;;1.45;;
76995;SDS011;65929;49.062;10.338;2023-02-01T05:00:42;2.05;;;1.13;;
76995;SDS011;65929;49.062;10.338;2023-02-01T05:01:43;4.45;;;1.42;;
76995;SDS011;65929;49.062;10.338;2023-02-01T05:02:44;3.17;;;0.93;;
76995;SDS011;65929;49.062;10.338;2023-02-01T05:03:45;3.17;;;1.60;;
76995;SDS011;65929;49.062;10.338;2023-02-01T05:04:45;2.42;;;1.48;;
76995;SDS011;65929;49.062;10.338;2023-02-01T05:05:46;2.17;;;1.10;;
76995;SDS011;65929;49.062;10.338;2023-02-01T05:06:48;2.92;;;1.80;;
76995;SDS011;65929;49.062;10.338;2023-02-01T05:07:49;2.47;;;1.13;;
76995;SDS011;65929;49.062;10.338;2023-02-01T05:08:50;2.40;;;1.60;;
76995;SDS011;65929;49.062;10.338;2023-02-01T05:09:52;2.30;;;1.15;;
76995;SDS011;65929;49.062;10.338;2023-02-01T05:10:53;2.35;;;1.50;;
76995;SDS011;65929;49.062;10.338;2023-02-01T05:11:54;2.25;;;1.20;;
76995;SDS011;65929;49.062;10.338;2023-02-01T05:13:14;1.60;;;1.38;;
76995;SDS011;65929;49.062;10.338;2023-02-01T05:14:33;1.58;;;1.27;;
76995;SDS011;65929;49.062;10.338;2023-02-01T05:15:34;1.65;;;1.30;;
76995;SDS011;65929;49.062;10.338;2023-02-01T05:16:35;2.35;;;1.65;;
76995;SDS011;65929;49.062;10.338;2023-02-01T05:17:36;1.65;;;1.23;;
76995;SDS011;65929;49.062;10.338;2023-02-01T05:18:37;2.17;;;1.60;;
76995;SDS011;65929;49.062;10.338;2023-02-01T05:19:38;2.92;;;1.48;;
76995;SDS011;65929;49.062;10.338;2023-02-01T05:20:39;2.13;;;1.38;;
76995;SDS011;65929;49.062;10.338;2023-02-01T05:21:39;1.30;;;1.20;;
76995;SDS011;65929;49.062;10.338;2023-02-01T05:22:40;2.33;;;1.52;;
76995;SDS011;65929;49.062;10.338;2023-02-01T05:23:42;2.35;;;1.20;;
76995;SDS011;65929;49.062;10.338;2023-02-01T05:25:06;4.13;;;1.42;;
76995;SDS011;65929;49.062;10.338;2023-02-01T05:26:07;1.20;;;0.90;;
76995;SDS011;65929;49.062;10.338;2023-02-01T05:27:08;1.60;;;1.10;;
76995;SDS011;65929;49.062;10.338;2023-02-01T05:28:11;1.48;;;1.38;;
76995;SDS011;65929;49.062;10.338;2023-02-01T05:29:12;2.50;;;1.77;;
76995;SDS011;65929;49.062;10.338;2023-02-01T05:30:14;1.35;;;1.10;;
76995;SDS011;65929;49.062;10.338;2023-02-01T05:31:15;3.63;;;1.80;;
76995;SDS011;65929;49.062;10.338;2023-02-01T05:32:16;1.52;;;1.30;;
76995;SDS011;65929;49.062;10.338;2023-02-01T05:33:17;1.65;;;0.93;;
76995;SDS011;65929;49.062;10.338;2023-02-01T05:34:18;2.88;;;0.90;;
76995;SDS011;65929;49.062;10.338;2023-02-01T05:35:19;2.22;;;1.40;;
76995;SDS011;65929;49.062;10.338;2023-02-01T05:36:20;2.25;;;1.33;;
76995;SDS011;65929;49.062;10.338;2023-02-01T05:37:21;1.88;;;1.00;;
76995;SDS011;65929;49.062;10.338;2023-02-01T05:38:22;2.17;;;1.45;;
76995;SDS011;65929;49.062;10.338;2023-02-01T05:39:23;3.38;;;1.50;;
76995;SDS011;65929;49.062;10.338;2023-02-01T05:40:25;2.35;;;1.60;;
76995;SDS011;65929;49.062;10.338;2023-02-01T05:41:26;2.15;;;1.65;;
76995;SDS011;65929;49.062;10.338;2023-02-01T05:42:27;3.38;;;2.00;;
76995;SDS011;65929;49.062;10.338;2023-02-01T05:43:28;1.75;;;1.10;;
76995;SDS011;65929;49.062;10.338;2023-02-01T05:44:29;2.40;;;1.67;;
76995;SDS011;65929;49.062;10.338;2023-02-01T05:45:30;2.15;;;1.45;;
76995;SDS011;65929;49.062;10.338;2023-02-01T05:46:31;2.92;;;1.27;;
76995;SDS011;65929;49.062;10.338;2023-02-01T05:47:32;2.55;;;1.30;;
76995;SDS011;65929;49.062;10.338;2023-02-01T05:48:33;1.73;;;1.15;;
76995;SDS011;65929;49.062;10.338;2023-02-01T05:49:34;2.45;;;1.30;;
76995;SDS011;65929;49.062;10.338;2023-02-01T05:50:35;2.78;;;1.50;;
76995;SDS011;65929;49.062;10.338;2023-02-01T05:51:36;3.33;;;2.17;;
76995;SDS011;65929;49.062;10.338;2023-02-01T05:52:37;2.75;;;1.52;;
76995;SDS011;65929;49.062;10.338;2023-02-01T05:53:38;2.38;;;1.67;;
76995;SDS011;65929;49.062;10.338;2023-02-01T05:54:39;1.67;;;1.38;;
76995;SDS011;65929;49.062;10.338;2023-02-01T05:55:41;1.98;;;1.63;;
76995;SDS011;65929;49.062;10.338;2023-02-01T05:56:42;3.70;;;1.73;;
76995;SDS011;65929;49.062;10.338;2023-02-01T05:57:43;3.13;;;1.70;;
76995;SDS011;65929;49.062;10.338;2023-02-01T05:58:44;3.72;;;1.90;;
76995;SDS011;65929;49.062;10.338;2023-02-01T05:59:45;2.22;;;1.20;;
76995;SDS011;65929;49.062;10.338;2023-02-01T06:00:47;3.25;;;1.92;;
76995;SDS011;65929;49.062;10.338;2023-02-01T06:01:48;2.88;;;1.60;;
76995;SDS011;65929;49.062;10.338;2023-02-01T06:02:49;3.75;;;1.90;;
76995;SDS011;65929;49.062;10.338;2023-02-01T06:03:50;2.50;;;1.63;;
76995;SDS011;65929;49.062;10.338;2023-02-01T06:04:51;1.23;;;1.10;;
76995;SDS011;65929;49.062;10.338;2023-02-01T06:05:52;2.40;;;1.50;;
76995;SDS011;65929;49.062;10.338;2023-02-01T06:06:53;4.72;;;1.75;;
76995;SDS011;65929;49.062;10.338;2023-02-01T06:07:54;3.38;;;1.85;;
76995;SDS011;65929;49.062;10.338;2023-02-01T06:08:55;1.58;;;1.38;;
76995;SDS011;65929;49.062;10.338;2023-02-01T06:09:55;3.40;;;2.03;;
76995;SDS011;65929;49.062;10.338;2023-02-01T06:10:58;2.90;;;2.10;;
76995;SDS011;65929;49.062;10.338;2023-02-01T06:11:59;4.43;;;1.40;;
76995;SDS011;65929;49.062;10.338;2023-02-01T06:13:01;3.17;;;1.63;;
76995;SDS011;65929;49.062;10.338;2023-02-01T06:14:03;2.42;;;1.33;;
76995;SDS011;65929;49.062;10.338;2023-02-01T06:15:04;2.70;;;1.60;;
76995;SDS011;65929;49.062;10.338;2023-02-01T06:16:06;2.17;;;1.48;;
76995;SDS011;65929;49.062;10.338;2023-02-01T06:17:07;3.60;;;1.83;;
76995;SDS011;65929;49.062;10.338;2023-02-01T06:18:08;4.18;;;1.73;;
76995;SDS011;65929;49.062;10.338;2023-02-01T06:19:09;2.25;;;1.55;;
76995;SDS011;65929;49.062;10.338;2023-02-01T06:20:10;3.08;;;1.48;;
76995;SDS011;65929;49.062;10.338;2023-02-01T06:21:12;2.80;;;1.30;;
76995;SDS011;65929;49.062;10.338;2023-02-01T06:22:15;3.58;;;1.90;;
76995;SDS011;65929;49.062;10.338;2023-02-01T06:23:16;2.83;;;1.35;;
76995;SDS011;65929;49.062;10.338;2023-02-01T06:24:17;2.35;;;1.40;;
76995;SDS011;65929;49.062;10.338;2023-02-01T06:25:18;3.22;;;1.70;;
76995;SDS011;65929;49.062;10.338;2023-02-01T06:26:22;2.20;;;1.67;;
76995;SDS011;65929;49.062;10.338;2023-02-01T06:27:23;2.90;;;1.73;;
76995;SDS011;65929;49.062;10.338;2023-02-01T06:28:24;2.47;;;1.58;;
76995;SDS011;65929;49.062;10.338;2023-02-01T06:29:25;1.98;;;1.20;;
76995;SDS011;65929;49.062;10.338;2023-02-01T06:30:26;2.65;;;1.58;;
76995;SDS011;65929;49.062;10.338;2023-02-01T06:31:28;2.53;;;1.60;;
76995;SDS011;65929;49.062;10.338;2023-02-01T06:32:29;2.92;;;1.85;;
76995;SDS011;65929;49.062;10.338;2023-02-01T06:33:30;5.22;;;2.35;;
76995;SDS011;65929;49.062;10.338;2023-02-01T06:34:31;2.80;;;1.80;;
76995;SDS011;65929;49.062;10.338;2023-02-01T06:35:32;1.95;;;1.50;;
76995;SDS011;65929;49.062;10.338;2023-02-01T06:36:32;2.30;;;1.30;;
76995;SDS011;65929;49.062;10.338;2023-02-01T06:37:33;1.80;;;1.15;;